createdAt,value
2018-06-04T00:01:59.623Z,26.80
2018-06-04T00:04:27.089Z,27.97
2018-06-04T00:06:54.493Z,28.10
2018-06-04T00:09:21.923Z,27.67
2018-06-04T00:11:49.409Z,24.90
2018-06-04T00:14:16.792Z,27.90
2018-06-04T00:16:44.254Z,28.30
2018-06-04T00:19:11.708Z,28.30
2018-06-04T00:21:39.090Z,31.13
2018-06-04T00:24:06.442Z,30.47
2018-06-04T00:26:33.919Z,30.17
2018-06-04T00:29:01.257Z,26.00
2018-06-04T00:31:28.727Z,30.43
2018-06-04T00:33:56.057Z,32.03
2018-06-04T00:36:23.501Z,30.17
2018-06-04T00:38:50.878Z,25.87
2018-06-04T00:41:18.277Z,29.70
2018-06-04T00:43:45.674Z,23.90
2018-06-04T00:46:13.098Z,28.27
2018-06-04T00:48:40.494Z,23.53
2018-06-04T00:51:07.953Z,28.07
2018-06-04T00:53:35.397Z,29.57
2018-06-04T00:56:13.898Z,28.20
2018-06-04T00:58:41.289Z,24.57
2018-06-04T01:01:08.751Z,28.57
2018-06-04T01:03:36.143Z,24.83
2018-06-04T01:06:03.549Z,28.17
2018-06-04T01:08:30.918Z,22.60
2018-06-04T01:10:58.382Z,28.33
2018-06-04T01:13:25.884Z,24.03
2018-06-04T01:15:53.254Z,27.20
2018-06-04T01:18:21.077Z,23.47
2018-06-04T01:20:48.521Z,28.07
2018-06-04T01:23:16.049Z,23.43
2018-06-04T01:25:43.605Z,27.60
2018-06-04T01:28:11.035Z,23.83
2018-06-04T01:30:38.504Z,26.90
2018-06-04T01:33:07.227Z,24.43
2018-06-04T01:35:34.894Z,27.97
2018-06-04T01:38:02.311Z,25.40
2018-06-04T01:40:29.796Z,28.77
2018-06-04T01:42:57.139Z,27.97
2018-06-04T01:45:24.529Z,24.33
2018-06-04T01:47:51.937Z,29.00
2018-06-04T01:50:19.302Z,24.97
2018-06-04T01:52:46.747Z,29.30
2018-06-04T01:55:14.128Z,29.87
2018-06-04T01:57:42.088Z,31.73
2018-06-04T02:00:10.331Z,29.87
2018-06-04T02:02:38.533Z,31.20
2018-06-04T02:05:05.991Z,25.97
2018-06-04T02:07:33.468Z,33.30
2018-06-04T02:10:00.830Z,27.37
2018-06-04T02:12:28.252Z,27.50
2018-06-04T02:14:55.625Z,29.43
2018-06-04T02:17:23.164Z,24.43
2018-06-04T02:19:50.537Z,31.17
2018-06-04T02:22:17.913Z,28.20
2018-06-04T02:24:45.401Z,32.47
2018-06-04T02:27:12.821Z,28.57
2018-06-04T02:29:40.232Z,33.87
2018-06-04T02:32:08.491Z,29.73
2018-06-04T02:34:35.980Z,34.40
2018-06-04T02:37:04.060Z,36.33
2018-06-04T02:39:31.447Z,32.60
2018-06-04T02:41:58.785Z,35.57
2018-06-04T02:44:26.554Z,32.80
2018-06-04T02:46:54.015Z,35.00
2018-06-04T02:49:22.313Z,28.37
2018-06-04T02:51:49.794Z,34.43
2018-06-04T02:54:17.170Z,34.00
2018-06-04T02:56:44.694Z,35.07
2018-06-04T02:59:12.161Z,36.83
2018-06-04T03:01:39.522Z,32.87
2018-06-04T03:04:06.903Z,37.43
2018-06-04T03:06:34.754Z,38.57
2018-06-04T03:09:02.391Z,33.87
2018-06-04T03:11:29.738Z,38.20
2018-06-04T03:13:57.194Z,34.67
2018-06-04T03:16:24.591Z,39.43
2018-06-04T03:18:52.624Z,40.90
2018-06-04T03:21:20.002Z,34.30
2018-06-04T03:23:47.389Z,39.57
2018-06-04T03:26:14.803Z,33.23
2018-06-04T03:28:42.266Z,40.80
2018-06-04T03:31:10.448Z,42.40
2018-06-04T03:33:38.032Z,35.73
2018-06-04T03:36:06.146Z,43.07
2018-06-04T03:38:33.563Z,38.00
2018-06-04T03:41:01.096Z,41.53
2018-06-04T03:43:28.516Z,36.67
2018-06-04T03:45:55.912Z,42.13
2018-06-04T03:48:23.610Z,42.07
2018-06-04T03:50:51.875Z,36.60
2018-06-04T03:53:19.318Z,40.23
2018-06-04T03:55:46.700Z,41.23
2018-06-04T03:58:14.070Z,37.53
2018-06-04T04:00:42.241Z,34.60
2018-06-04T04:03:09.706Z,39.30
2018-06-04T04:05:37.083Z,33.53
2018-06-04T04:08:04.480Z,39.13
2018-06-04T04:10:36.055Z,38.20
2018-06-04T04:13:03.462Z,37.53
2018-06-04T04:15:30.861Z,37.30
2018-06-04T04:17:58.283Z,37.47
2018-06-04T04:20:26.022Z,38.07
2018-06-04T04:22:53.463Z,35.97
2018-06-04T04:25:20.853Z,36.93
2018-06-04T04:27:48.237Z,31.87
2018-06-04T04:30:15.641Z,35.50
2018-06-04T04:32:43.113Z,36.87
2018-06-04T04:35:10.492Z,34.33
2018-06-04T04:37:37.841Z,31.27
2018-06-04T04:40:05.260Z,37.17
2018-06-04T04:42:32.662Z,36.43
2018-06-04T04:45:00.026Z,30.20
2018-06-04T04:47:27.463Z,36.03
2018-06-04T04:49:55.235Z,38.13
2018-06-04T04:52:22.972Z,34.13
2018-06-04T04:54:50.904Z,37.20
2018-06-04T04:57:18.632Z,32.47
2018-06-04T04:59:46.429Z,37.67
2018-06-04T05:02:13.923Z,35.73
2018-06-04T05:04:42.063Z,36.73
2018-06-04T05:07:10.283Z,36.23
2018-06-04T05:09:37.647Z,36.17
2018-06-04T05:12:05.068Z,35.87
2018-06-04T05:14:32.559Z,30.93
2018-06-04T05:16:59.992Z,37.60
2018-06-04T05:19:27.533Z,36.80
2018-06-04T05:21:55.109Z,30.53
2018-06-04T05:24:22.567Z,36.80
2018-06-04T05:26:50.476Z,35.47
2018-06-04T05:29:18.306Z,33.10
2018-06-04T05:31:45.759Z,32.50
2018-06-04T05:34:13.417Z,37.73
2018-06-04T05:36:40.818Z,37.33
2018-06-04T05:39:09.440Z,36.43
2018-06-04T05:41:36.810Z,35.37
2018-06-04T05:44:04.414Z,34.70
2018-06-04T05:46:31.961Z,32.50
2018-06-04T05:48:59.439Z,34.47
2018-06-04T05:51:26.895Z,35.10
2018-06-04T05:53:54.485Z,33.20
2018-06-04T05:56:22.179Z,30.70
2018-06-04T05:58:49.898Z,31.13
2018-06-04T06:01:17.420Z,31.37
2018-06-04T06:03:44.801Z,29.27
2018-06-04T06:06:12.164Z,30.90
2018-06-04T06:08:39.735Z,30.73
2018-06-04T06:11:07.211Z,28.97
2018-06-04T06:13:34.621Z,28.30
2018-06-04T06:16:02.340Z,27.93
2018-06-04T06:18:29.764Z,28.10
2018-06-04T06:20:57.814Z,27.20
2018-06-04T06:23:25.251Z,27.20
2018-06-04T06:25:52.962Z,26.93
2018-06-04T06:28:20.539Z,27.70
2018-06-04T06:30:47.998Z,26.27
2018-06-04T06:33:16.233Z,27.30
2018-06-04T06:35:43.616Z,27.33
2018-06-04T06:38:11.359Z,25.80
2018-06-04T06:40:39.065Z,26.53
2018-06-04T06:43:06.507Z,26.23
2018-06-04T06:45:34.594Z,27.07
2018-06-04T06:48:01.999Z,26.40
2018-06-04T06:50:29.579Z,26.17
2018-06-04T06:52:56.998Z,26.03
2018-06-04T06:55:24.449Z,27.67
2018-06-04T06:57:52.085Z,26.50
2018-06-04T07:00:19.554Z,27.90
2018-06-04T07:02:47.445Z,26.87
2018-06-04T07:05:14.898Z,26.57
2018-06-04T07:07:42.347Z,25.83
2018-06-04T07:10:10.780Z,24.87
2018-06-04T07:12:38.494Z,24.83
2018-06-04T07:15:05.898Z,26.30
2018-06-04T07:17:33.332Z,24.70
2018-06-04T07:20:00.754Z,24.83
2018-06-04T07:22:28.285Z,25.00
2018-06-04T07:24:55.765Z,24.33
2018-06-04T07:27:23.156Z,23.67
2018-06-04T07:29:50.625Z,26.07
2018-06-04T07:32:18.148Z,27.30
2018-06-04T07:34:46.647Z,29.47
2018-06-04T07:37:14.417Z,30.40
2018-06-04T07:39:41.968Z,33.33
2018-06-04T07:42:09.417Z,32.30
2018-06-04T07:44:36.810Z,32.57
2018-06-04T07:47:04.198Z,30.67
2018-06-04T07:49:31.607Z,30.73
2018-06-04T07:51:59.048Z,30.63
2018-06-04T07:54:27.152Z,30.17
2018-06-04T07:56:54.579Z,31.27
2018-06-04T07:59:22.182Z,31.10
2018-06-04T08:01:49.643Z,29.13
2018-06-04T08:04:17.055Z,30.50
2018-06-04T08:06:44.568Z,31.73
2018-06-04T08:09:12.269Z,32.60
2018-06-04T08:11:39.933Z,31.00
2018-06-04T08:14:07.560Z,31.33
2018-06-04T08:16:34.924Z,33.53
2018-06-04T08:19:02.343Z,32.90
2018-06-04T08:21:29.911Z,32.90
2018-06-04T08:23:57.370Z,32.50
2018-06-04T08:26:24.757Z,31.60
2018-06-04T08:28:52.155Z,30.47
2018-06-04T08:31:19.514Z,28.93
2018-06-04T08:33:46.952Z,28.50
2018-06-04T08:36:14.327Z,28.53
2018-06-04T08:38:41.733Z,27.30
2018-06-04T08:41:09.133Z,27.43
2018-06-04T08:43:36.757Z,26.63
2018-06-04T08:46:04.529Z,27.67
2018-06-04T08:48:31.927Z,25.90
2018-06-04T08:50:59.326Z,25.47
2018-06-04T08:53:26.779Z,24.73
2018-06-04T08:55:54.318Z,24.00
2018-06-04T08:58:21.806Z,25.17
2018-06-04T09:00:49.798Z,24.37
2018-06-04T09:03:17.319Z,25.00
2018-06-04T09:05:44.870Z,25.50
2018-06-04T09:08:12.323Z,23.77
2018-06-04T09:10:39.886Z,22.90
2018-06-04T09:13:07.394Z,22.43
2018-06-04T09:15:34.879Z,22.07
2018-06-04T09:18:02.315Z,20.33
2018-06-04T09:20:29.909Z,20.17
2018-06-04T09:22:57.404Z,21.10
2018-06-04T09:25:24.877Z,19.73
2018-06-04T09:27:52.280Z,18.67
2018-06-04T09:30:19.977Z,18.33
2018-06-04T09:32:47.476Z,18.87
2018-06-04T09:35:14.924Z,18.50
2018-06-04T09:37:42.443Z,17.80
2018-06-04T09:40:10.000Z,17.20
2018-06-04T09:42:37.495Z,16.67
2018-06-04T09:45:04.918Z,17.27
2018-06-04T09:48:36.508Z,16.13
2018-06-04T09:51:04.037Z,15.13
2018-06-04T09:53:31.697Z,15.17
2018-06-04T09:55:59.154Z,15.93
2018-06-04T09:58:26.574Z,16.80
2018-06-04T10:00:54.017Z,16.50
2018-06-04T10:03:21.428Z,16.23
2018-06-04T10:05:49.395Z,17.03
2018-06-04T10:08:16.860Z,16.50
2018-06-04T10:10:44.295Z,15.87
2018-06-04T10:13:11.776Z,16.67
2018-06-04T10:15:39.186Z,16.80
2018-06-04T10:18:06.918Z,16.60
2018-06-04T10:20:34.337Z,16.67
2018-06-04T10:23:01.870Z,15.87
2018-06-04T10:25:29.354Z,15.97
2018-06-04T10:27:56.792Z,14.50
2018-06-04T10:30:24.236Z,14.90
2018-06-04T10:32:51.684Z,14.97
2018-06-04T10:35:19.080Z,14.30
2018-06-04T10:37:46.493Z,14.20
2018-06-04T10:40:13.921Z,14.97
2018-06-04T10:42:41.361Z,15.00
2018-06-04T10:45:08.886Z,14.30
2018-06-04T10:47:36.535Z,14.10
2018-06-04T10:50:03.918Z,14.60
2018-06-04T10:52:31.332Z,14.87
2018-06-04T10:54:58.960Z,14.77
2018-06-04T10:57:26.433Z,13.80
2018-06-04T10:59:53.925Z,13.73
2018-06-04T11:02:21.384Z,16.37
2018-06-04T11:04:48.804Z,16.23
2018-06-04T11:07:16.195Z,15.60
2018-06-04T11:09:43.602Z,17.30
2018-06-04T11:12:11.054Z,15.80
2018-06-04T11:14:38.461Z,15.77
2018-06-04T11:17:05.899Z,18.67
2018-06-04T11:19:33.295Z,16.40
2018-06-04T11:22:00.682Z,14.90
2018-06-04T11:24:28.749Z,16.50
2018-06-04T11:26:56.258Z,16.83
2018-06-04T11:29:23.670Z,17.93
2018-06-04T11:31:51.686Z,18.50
2018-06-04T11:34:19.148Z,19.57
2018-06-04T11:36:46.594Z,18.50
2018-06-04T11:39:14.105Z,20.17
2018-06-04T11:41:41.583Z,19.30
2018-06-04T11:44:09.016Z,20.40
2018-06-04T11:46:36.487Z,19.30
2018-06-04T11:49:03.909Z,18.33
2018-06-04T11:51:31.492Z,17.63
2018-06-04T11:53:58.954Z,17.63
2018-06-04T11:56:26.567Z,17.10
2018-06-04T11:58:54.173Z,17.90
2018-06-04T12:01:21.670Z,18.47
2018-06-04T12:03:49.430Z,17.80
2018-06-04T12:06:16.977Z,17.37
2018-06-04T12:08:45.187Z,18.37
2018-06-04T12:11:12.545Z,16.57
2018-06-04T12:13:39.936Z,15.73
2018-06-04T12:16:07.277Z,17.37
2018-06-04T12:18:34.647Z,14.67
2018-06-04T12:21:02.031Z,15.13
2018-06-04T12:23:29.442Z,14.23
2018-06-04T12:25:56.850Z,12.87
2018-06-04T12:28:24.369Z,14.30
2018-06-04T12:30:51.845Z,13.43
2018-06-04T12:33:19.924Z,12.57
2018-06-04T12:35:47.380Z,12.60
2018-06-04T12:38:14.751Z,11.93
2018-06-04T12:40:42.122Z,12.43
2018-06-04T12:43:10.253Z,13.10
2018-06-04T12:45:39.009Z,11.20
2018-06-04T12:48:06.505Z,11.00
2018-06-04T12:50:33.917Z,9.97
2018-06-04T12:53:01.964Z,10.10
2018-06-04T12:55:29.421Z,9.63
2018-06-04T12:57:56.843Z,9.40
2018-06-04T13:00:24.245Z,10.03
2018-06-04T13:02:51.649Z,12.60
2018-06-04T13:05:19.025Z,11.13
2018-06-04T13:07:46.733Z,11.10
2018-06-04T13:10:14.278Z,9.80
2018-06-04T13:12:42.046Z,11.10
2018-06-04T13:15:09.501Z,10.50
2018-06-04T13:17:36.916Z,11.00
2018-06-04T13:20:04.425Z,10.50
2018-06-04T13:22:32.070Z,11.77
2018-06-04T13:24:59.450Z,11.07
2018-06-04T13:27:27.233Z,11.67
2018-06-04T13:29:54.842Z,10.63
2018-06-04T13:32:23.108Z,11.33
2018-06-04T13:34:58.206Z,12.27
2018-06-04T13:37:26.125Z,10.57
2018-06-04T13:39:53.639Z,10.70
2018-06-04T13:42:21.140Z,10.43
2018-06-04T13:44:48.896Z,9.70
2018-06-04T13:47:16.529Z,10.67
2018-06-04T13:49:44.092Z,9.83
2018-06-04T13:52:11.730Z,9.87
2018-06-04T13:54:39.175Z,9.07
2018-06-04T13:57:06.629Z,10.93
2018-06-04T13:59:34.422Z,10.97
2018-06-04T14:02:01.965Z,12.20
2018-06-04T14:04:29.412Z,9.73
2018-06-04T14:06:56.876Z,10.20
2018-06-04T14:09:24.452Z,11.00
2018-06-04T14:11:52.093Z,10.67
2018-06-04T14:14:19.991Z,9.80
2018-06-04T14:16:47.609Z,11.30
2018-06-04T14:19:15.115Z,10.40
2018-06-04T14:21:42.482Z,10.67
2018-06-04T14:24:10.078Z,9.97
2018-06-04T14:26:37.467Z,9.87
2018-06-04T14:29:04.845Z,10.23
2018-06-04T14:31:32.625Z,10.90
2018-06-04T14:34:00.166Z,10.60
2018-06-04T14:36:27.884Z,11.43
2018-06-04T14:38:55.841Z,11.73
2018-06-04T14:41:23.200Z,11.30
2018-06-04T14:43:50.653Z,11.33
2018-06-04T14:46:18.103Z,11.40
2018-06-04T14:48:45.505Z,11.40
2018-06-04T14:51:13.277Z,11.40
2018-06-04T14:53:40.657Z,12.47
2018-06-04T14:56:08.776Z,12.80
2018-06-04T14:58:36.456Z,11.93
2018-06-04T15:01:03.972Z,11.63
2018-06-04T15:03:31.449Z,9.97
2018-06-04T15:05:58.861Z,10.97
2018-06-04T15:08:26.269Z,9.73
2018-06-04T15:10:54.005Z,9.83
2018-06-04T15:13:22.130Z,8.73
2018-06-04T15:15:49.588Z,8.73
2018-06-04T15:18:18.201Z,8.57
2018-06-04T15:20:45.853Z,8.90
2018-06-04T15:23:13.592Z,7.70
2018-06-04T15:25:41.114Z,7.37
2018-06-04T15:28:08.787Z,7.67
2018-06-04T15:30:36.212Z,7.23
2018-06-04T15:33:03.652Z,7.33
2018-06-04T15:35:31.247Z,8.30
2018-06-04T15:37:58.945Z,7.80
2018-06-04T15:40:26.356Z,8.17
2018-06-04T15:42:53.989Z,7.67
2018-06-04T15:45:21.748Z,7.07
2018-06-04T15:47:49.298Z,7.57
2018-06-04T15:50:16.757Z,6.17
2018-06-04T15:52:44.117Z,6.87
2018-06-04T15:55:11.586Z,6.90
2018-06-04T15:57:39.493Z,6.20
2018-06-04T16:00:06.993Z,6.20
2018-06-04T16:02:35.335Z,6.60
2018-06-04T16:05:02.767Z,6.87
2018-06-04T16:07:30.368Z,6.90
2018-06-04T16:09:57.822Z,7.53
2018-06-04T16:12:25.369Z,6.60
2018-06-04T16:14:52.927Z,6.40
2018-06-04T16:17:20.522Z,6.97
2018-06-04T16:19:48.023Z,6.73
2018-06-04T16:22:15.453Z,6.80
2018-06-04T16:24:43.192Z,6.60
2018-06-04T16:27:10.537Z,6.33
2018-06-04T16:29:37.965Z,6.70
2018-06-04T16:32:05.371Z,6.43
2018-06-04T16:34:33.150Z,6.67
2018-06-04T16:37:00.955Z,6.57
2018-06-04T16:39:28.661Z,6.27
2018-06-04T16:41:56.157Z,7.37
2018-06-04T16:44:23.603Z,5.27
2018-06-04T16:46:51.008Z,5.60
2018-06-04T16:49:18.428Z,5.30
2018-06-04T16:51:45.858Z,5.63
2018-06-04T16:54:13.218Z,5.00
2018-06-04T16:56:40.629Z,5.30
2018-06-04T16:59:08.244Z,5.60
2018-06-04T17:01:35.615Z,4.57
2018-06-04T17:04:03.073Z,4.67
2018-06-04T17:06:30.729Z,4.57
2018-06-04T17:08:58.214Z,5.00
2018-06-04T17:11:26.070Z,4.70
2018-06-04T17:13:53.613Z,4.87
2018-06-04T17:16:21.020Z,5.23
2018-06-04T17:18:48.406Z,5.00
2018-06-04T17:21:15.799Z,4.60
2018-06-04T17:23:43.448Z,4.60
2018-06-04T17:26:10.847Z,4.50
2018-06-04T17:28:38.837Z,4.77
2018-06-04T17:31:06.323Z,5.27
2018-06-04T17:33:33.993Z,5.23
2018-06-04T17:36:01.639Z,5.10
2018-06-04T17:38:29.049Z,5.40
2018-06-04T17:40:56.503Z,6.00
2018-06-04T17:43:23.967Z,6.33
2018-06-04T17:45:51.410Z,5.70
2018-06-04T17:48:18.824Z,6.90
2018-06-04T17:50:46.304Z,6.70
2018-06-04T17:53:13.700Z,7.27
2018-06-04T17:55:41.363Z,7.23
2018-06-04T17:58:08.947Z,6.70
2018-06-04T18:00:36.397Z,6.43
2018-06-04T18:03:04.009Z,7.83
2018-06-04T18:05:31.355Z,8.30
2018-06-04T18:07:58.801Z,7.53
2018-06-04T18:10:26.267Z,7.97
2018-06-04T18:12:53.744Z,7.57
2018-06-04T18:15:21.251Z,7.17
2018-06-04T18:17:48.661Z,7.10
2018-06-04T18:20:16.050Z,6.80
2018-06-04T18:22:43.585Z,7.37
2018-06-04T18:25:11.073Z,6.83
2018-06-04T18:27:38.646Z,7.77
2018-06-04T18:30:06.101Z,7.83
2018-06-04T18:32:33.622Z,8.67
2018-06-04T18:35:01.038Z,8.23
2018-06-04T18:37:28.513Z,7.57
2018-06-04T18:39:55.942Z,7.97
2018-06-04T18:42:23.484Z,7.50
2018-06-04T18:44:50.926Z,7.63
2018-06-04T18:47:18.542Z,8.43
2018-06-04T18:49:46.006Z,7.30
2018-06-04T18:52:13.369Z,8.50
2018-06-04T18:54:40.766Z,8.40
2018-06-04T18:57:08.284Z,8.50
2018-06-04T18:59:35.830Z,9.67
2018-06-04T19:02:03.190Z,9.13
2018-06-04T19:04:31.247Z,9.90
2018-06-04T19:06:58.697Z,8.77
2018-06-04T19:09:26.106Z,9.63
2018-06-04T19:11:53.632Z,9.13
2018-06-04T19:14:21.150Z,8.90
2018-06-04T19:16:48.576Z,9.10
2018-06-04T19:19:16.005Z,10.00
2018-06-04T19:21:43.429Z,10.10
2018-06-04T19:24:10.813Z,11.03
2018-06-04T19:26:38.223Z,10.10
2018-06-04T19:29:05.754Z,9.23
2018-06-04T19:31:33.183Z,10.27
2018-06-04T19:34:00.606Z,9.93
2018-06-04T19:36:28.024Z,8.97
2018-06-04T19:38:55.396Z,10.30
2018-06-04T19:41:22.778Z,8.83
2018-06-04T19:43:50.211Z,11.03
2018-06-04T19:46:17.616Z,10.77
2018-06-04T19:48:45.616Z,10.57
2018-06-04T19:51:13.104Z,11.03
2018-06-04T19:53:40.696Z,10.50
2018-06-04T19:56:08.116Z,11.60
2018-06-04T19:58:35.549Z,11.30
2018-06-04T20:01:03.122Z,12.77
2018-06-04T20:03:30.693Z,12.57
2018-06-04T20:05:58.094Z,13.53
2018-06-04T20:08:25.532Z,13.87
2018-06-04T20:10:53.177Z,13.77
2018-06-04T20:13:20.567Z,13.80
2018-06-04T20:15:48.018Z,14.37
2018-06-04T20:18:15.499Z,13.63
2018-06-04T20:20:42.895Z,13.67
2018-06-04T20:23:10.291Z,14.30
2018-06-04T20:25:38.354Z,14.80
2018-06-04T20:28:05.730Z,16.37
2018-06-04T20:30:33.167Z,15.63
2018-06-04T20:33:00.633Z,16.07
2018-06-04T20:35:28.213Z,16.60
2018-06-04T20:37:55.684Z,15.37
2018-06-04T20:40:23.350Z,16.50
2018-06-04T20:42:51.465Z,16.37
2018-06-04T20:45:18.860Z,17.20
2018-06-04T20:47:46.360Z,17.07
2018-06-04T20:50:13.749Z,16.70
2018-06-04T20:52:41.625Z,17.40
2018-06-04T20:55:09.061Z,16.47
2018-06-04T20:57:36.544Z,17.23
2018-06-04T21:00:04.211Z,17.57
2018-06-04T21:02:31.612Z,15.97
2018-06-04T21:04:59.000Z,16.77
2018-06-04T21:07:26.656Z,15.37
2018-06-04T21:09:54.141Z,15.37
2018-06-04T21:12:22.749Z,15.17
2018-06-04T21:14:50.378Z,15.67
2018-06-04T21:17:17.949Z,14.93
2018-06-04T21:19:45.350Z,14.73
2018-06-04T21:22:12.766Z,15.70
2018-06-04T21:24:40.601Z,15.33
2018-06-04T21:27:08.117Z,16.20
2018-06-04T21:29:35.523Z,15.63
2018-06-04T21:32:02.939Z,17.37
2018-06-04T21:34:30.405Z,18.77
2018-06-04T21:36:57.904Z,19.80
2018-06-04T21:39:25.265Z,18.27
2018-06-04T21:41:52.865Z,20.63
2018-06-04T21:44:20.323Z,22.47
2018-06-04T21:46:47.695Z,24.13
2018-06-04T21:49:19.114Z,23.60
2018-06-04T21:51:46.535Z,22.20
2018-06-04T21:54:13.906Z,25.87
2018-06-04T21:56:41.408Z,24.70
2018-06-04T21:59:08.817Z,27.10
2018-06-04T22:01:36.297Z,26.20
2018-06-04T22:04:04.339Z,26.10
2018-06-04T22:06:31.710Z,26.30
2018-06-04T22:08:59.072Z,28.07
2018-06-04T22:11:27.266Z,27.60
2018-06-04T22:13:54.674Z,26.57
2018-06-04T22:16:22.131Z,25.67
2018-06-04T22:18:50.462Z,25.33
2018-06-04T22:21:17.822Z,24.57
2018-06-04T22:23:45.282Z,23.10
2018-06-04T22:26:12.677Z,23.80
2018-06-04T22:28:40.168Z,23.97
2018-06-04T22:31:07.657Z,23.73
2018-06-04T22:33:35.006Z,23.50
2018-06-04T22:36:02.438Z,23.40
2018-06-04T22:38:29.866Z,22.13
2018-06-04T22:40:57.253Z,21.50
2018-06-04T22:43:24.785Z,20.47
2018-06-04T22:45:52.178Z,20.40
2018-06-04T22:48:19.555Z,21.27
2018-06-04T22:50:46.953Z,21.17
2018-06-04T22:53:14.321Z,20.37
2018-06-04T22:55:42.377Z,19.33
2018-06-04T22:58:09.744Z,20.80
2018-06-04T23:00:37.190Z,19.47
2018-06-04T23:03:04.560Z,19.43
2018-06-04T23:05:31.982Z,20.13
2018-06-04T23:07:59.338Z,20.47
2018-06-04T23:10:26.704Z,21.07
2018-06-04T23:12:54.046Z,21.00
2018-06-04T23:15:21.495Z,21.00
2018-06-04T23:17:48.844Z,20.77
2018-06-04T23:20:16.237Z,19.73
2018-06-04T23:22:50.292Z,19.50
2018-06-04T23:25:17.686Z,19.87
2018-06-04T23:27:45.379Z,18.23
2018-06-04T23:30:12.782Z,18.53
2018-06-04T23:32:40.145Z,17.70
2018-06-04T23:35:07.554Z,16.97
2018-06-04T23:37:34.953Z,17.63
2018-06-04T23:40:02.308Z,16.70
2018-06-04T23:42:29.793Z,16.43
2018-06-04T23:44:57.145Z,15.90
2018-06-04T23:47:24.559Z,15.90
2018-06-04T23:49:52.052Z,14.63
2018-06-04T23:52:19.451Z,15.37
2018-06-04T23:54:47.125Z,15.57
2018-06-04T23:57:14.569Z,14.43
2018-06-04T23:59:43.005Z,15.87
